Time;durP1;ratioP1;P1;durP2;ratioP2;P2;SDS_P1;SDS_P2;PMS_P1;PMS_P2;Temp;Humidity;BMP_temperature;BMP_pressure;BME280_temperature;BME280_humidity;BME280_pressure;Samples;Min_cycle;Max_cycle;Signal;HPM_P1;HPM_P2
2021/06/06 00:01:02;;;;;;;5.00;1.87;;;;;;;20.83;51.75;101486.38;4417169;32;20046;-74
2021/06/06 00:03:36;;;;;;;8.15;2.95;;;;;;;20.86;51.75;101482.53;4430030;32;20045;-73
2021/06/06 00:06:10;;;;;;;8.30;2.47;;;;;;;20.90;51.84;101490.94;4429051;32;20133;-73
2021/06/06 00:08:37;;;;;;;4.47;1.90;;;;;;;21.00;51.50;101484.66;4429511;32;20101;-74
2021/06/06 00:11:12;;;;;;;5.55;2.55;;;;;;;20.97;51.50;101491.37;4428050;32;20184;-74
2021/06/06 00:13:39;;;;;;;9.80;4.47;;;;;;;21.06;51.41;101488.41;4430608;32;20054;-74
2021/06/06 00:16:08;;;;;;;4.57;2.30;;;;;;;21.10;51.16;101485.34;4430531;32;20021;-74
2021/06/06 00:18:34;;;;;;;3.78;2.17;;;;;;;21.21;50.82;101492.06;4428978;32;20185;-74
2021/06/06 00:21:00;;;;;;;4.65;2.47;;;;;;;21.16;50.56;101489.09;4427692;32;20121;-74
2021/06/06 00:23:29;;;;;;;3.22;2.20;;;;;;;21.13;50.76;101484.34;4430534;32;20561;-73
2021/06/06 00:25:56;;;;;;;3.22;1.83;;;;;;;21.19;50.76;101488.09;4425762;32;20033;-73
2021/06/06 00:28:22;;;;;;;4.62;1.85;;;;;;;21.21;51.16;101480.59;4427336;32;20067;-73
2021/06/06 00:30:47;;;;;;;2.92;1.70;;;;;;;21.23;51.49;101480.87;4428797;32;20077;-73
2021/06/06 00:33:13;;;;;;;3.40;2.10;;;;;;;21.19;50.77;101483.16;4429065;32;20098;-73
2021/06/06 00:35:39;;;;;;;2.65;1.77;;;;;;;21.09;51.33;101490.28;4430069;32;20087;-73
2021/06/06 00:38:04;;;;;;;2.37;1.70;;;;;;;21.11;52.63;101490.56;4428268;32;20094;-74
2021/06/06 00:40:32;;;;;;;5.32;2.05;;;;;;;21.02;51.94;101492.75;4428771;32;20105;-74
2021/06/06 00:42:59;;;;;;;3.72;2.00;;;;;;;20.96;53.02;101481.19;4429073;32;20146;-74
2021/06/06 00:45:28;;;;;;;3.97;2.47;;;;;;;20.93;54.16;101492.81;4429484;32;20076;-75
2021/06/06 00:47:54;;;;;;;5.75;2.33;;;;;;;20.81;53.92;101491.81;4429253;32;20073;-74
2021/06/06 00:50:26;;;;;;;5.32;1.77;;;;;;;20.82;53.84;101496.25;4430303;32;20092;-74
2021/06/06 00:52:54;;;;;;;3.30;1.67;;;;;;;20.84;53.12;101492.91;4429799;32;20103;-74
2021/06/06 00:55:21;;;;;;;5.53;2.15;;;;;;;20.78;53.43;101489.94;4429297;32;20101;-74
2021/06/06 00:57:48;;;;;;;3.85;2.15;;;;;;;20.82;53.35;101498.31;4427597;32;20053;-75
2021/06/06 01:00:36;;;;;;;3.40;2.30;;;;;;;20.84;53.00;101496.56;4428337;32;20096;-75
2021/06/06 01:03:03;;;;;;;3.35;2.03;;;;;;;20.88;52.77;101499.22;4426935;32;20088;-73
2021/06/06 01:08:11;;;;;;;5.37;2.10;;;;;;;21.29;52.33;101498.16;4438838;31;687342;-74
2021/06/06 01:10:37;;;;;;;3.53;2.10;;;;;;;21.29;52.33;101498.16;4449310;32;20104;-74
2021/06/06 01:13:11;;;;;;;3.40;2.08;;;;;;;20.82;52.75;101498.31;4451737;32;20041;-75
2021/06/06 01:15:38;;;;;;;2.60;1.85;;;;;;;20.81;52.72;101491.81;4453412;32;20037;-74
2021/06/06 01:26:24;;;;;;;4.18;2.05;;;;;;;21.17;52.27;101500.03;4441546;31;675182;-73
2021/06/06 01:29:00;;;;;;;3.10;2.00;;;;;;;21.17;52.27;101500.03;4456877;32;20088;-73
2021/06/06 01:31:27;;;;;;;3.72;2.00;;;;;;;20.65;52.98;101503.69;4458082;32;20390;-74
2021/06/06 01:33:58;;;;;;;3.70;1.92;;;;;;;20.74;52.74;101497.13;4451648;32;20063;-74
2021/06/06 01:36:30;;;;;;;4.72;1.98;;;;;;;20.75;52.82;101502.38;4451528;32;21078;-75
2021/06/06 01:39:00;;;;;;;3.53;1.92;;;;;;;20.69;52.92;101501.47;4454940;32;20544;-74
2021/06/06 01:41:34;;;;;;;4.75;2.30;;;;;;;20.72;52.95;101500.47;4454064;32;20085;-74
2021/06/06 01:44:03;;;;;;;3.47;2.00;;;;;;;20.75;52.85;101505.22;4454565;32;20044;-74
2021/06/06 01:46:37;;;;;;;5.75;2.00;;;;;;;20.78;52.71;101504.25;4455109;32;20094;-74
2021/06/06 01:49:06;;;;;;;4.10;2.00;;;;;;;20.73;52.81;101507.78;4454380;32;20121;-74
2021/06/06 01:51:38;;;;;;;4.82;2.35;;;;;;;20.71;52.99;101498.88;4456463;32;20392;-74
2021/06/06 01:54:08;;;;;;;3.00;2.12;;;;;;;20.67;52.84;101491.78;4455106;32;20670;-72
2021/06/06 01:56:37;;;;;;;5.53;2.20;;;;;;;20.72;52.99;101491.91;4454744;32;20480;-72
2021/06/06 01:59:08;;;;;;;3.87;2.25;;;;;;;20.76;52.71;101495.34;4453859;32;20398;-72
2021/06/06 02:01:36;;;;;;;3.60;2.10;;;;;;;20.80;52.79;101490.22;4439788;32;20389;-75
2021/06/06 02:04:04;;;;;;;4.95;2.33;;;;;;;20.84;52.51;101493.69;4441361;32;20072;-74
2021/06/06 02:09:21;;;;;;;2.93;2.20;;;;;;;21.23;51.96;101500.94;4409743;32;1467737;-72
2021/06/06 02:11:51;;;;;;;4.85;2.35;;;;;;;21.23;51.96;101500.94;4452073;32;20107;-73
2021/06/06 02:14:21;;;;;;;4.32;2.33;;;;;;;20.87;52.40;101494.78;4452362;32;20044;-73
2021/06/06 02:16:53;;;;;;;5.68;2.35;;;;;;;20.82;52.77;101501.97;4452718;32;20076;-72
2021/06/06 02:19:24;;;;;;;3.33;2.10;;;;;;;20.84;52.82;101496.56;4448538;32;20517;-73
2021/06/06 02:21:52;;;;;;;3.22;2.05;;;;;;;20.85;52.64;101498.13;4450152;32;20072;-73
2021/06/06 02:24:18;;;;;;;3.75;2.20;;;;;;;20.87;52.82;101500.50;4449914;32;20367;-73
2021/06/06 02:26:51;;;;;;;2.90;2.08;;;;;;;20.76;52.99;101498.22;4448405;32;20025;-73
2021/06/06 02:29:57;;;;;;;4.65;2.28;;;;;;;20.81;53.06;101494.69;4451094;32;20055;-73
2021/06/06 02:32:37;;;;;;;8.05;2.42;;;;;;;20.91;52.79;101513.31;4446622;32;20029;-73
2021/06/06 02:37:48;;;;;;;4.27;2.30;;;;;;;21.13;52.64;101499.44;4402950;31;1394787;-72
2021/06/06 02:40:30;;;;;;;2.95;2.00;;;;;;;21.13;52.64;101499.44;4441176;32;20045;-73
2021/06/06 02:43:01;;;;;;;3.67;2.08;;;;;;;20.68;53.40;101504.81;4443805;32;20064;-73
2021/06/06 02:45:29;;;;;;;3.30;2.25;;;;;;;20.57;53.76;101496.00;4441519;32;20482;-74
2021/06/06 02:48:03;;;;;;;5.28;2.30;;;;;;;20.55;53.70;101496.50;4439138;32;20444;-74
2021/06/06 02:50:34;;;;;;;2.95;1.87;;;;;;;20.50;53.92;101499.25;4441069;32;20045;-74
2021/06/06 02:53:05;;;;;;;4.62;2.10;;;;;;;20.38;54.41;101506.81;4442636;32;20089;-74
2021/06/06 02:55:36;;;;;;;4.25;2.60;;;;;;;20.38;54.52;101503.94;4441054;32;20038;-75
2021/06/06 02:58:09;;;;;;;3.92;1.98;;;;;;;20.37;54.67;101496.62;4439517;32;20041;-75
2021/06/06 03:00:41;;;;;;;3.28;2.17;;;;;;;20.40;54.34;101489.16;4438624;32;20098;-74
2021/06/06 03:03:10;;;;;;;4.32;2.37;;;;;;;20.42;54.28;101498.81;4423384;32;20455;-74
2021/06/06 03:05:37;;;;;;;4.55;2.15;;;;;;;20.36;54.29;101495.06;4421900;32;20382;-73
2021/06/06 03:08:06;;;;;;;5.47;2.45;;;;;;;20.39;54.41;101491.22;4422964;32;20101;-74
2021/06/06 03:10:35;;;;;;;3.83;2.10;;;;;;;20.43;54.27;101488.19;4422953;32;20060;-75
2021/06/06 03:13:07;;;;;;;4.28;2.37;;;;;;;20.41;54.04;101482.97;4425258;32;20046;-75
2021/06/06 03:15:39;;;;;;;3.70;2.22;;;;;;;20.38;54.24;101477.41;4426546;32;20081;-74
2021/06/06 03:18:07;;;;;;;5.40;2.20;;;;;;;20.42;54.10;101483.72;4424171;32;20034;-74
2021/06/06 03:20:38;;;;;;;4.95;2.50;;;;;;;20.41;54.22;101477.25;4423040;32;20139;-73
2021/06/06 03:23:07;;;;;;;3.92;2.40;;;;;;;20.42;54.07;101481.66;4424149;32;20406;-73
2021/06/06 03:28:14;;;;;;;6.30;2.50;;;;;;;20.81;53.73;101488.97;4409183;31;1417230;-73
2021/06/06 03:33:48;;;;;;;6.25;2.20;;;;;;;20.71;54.12;101492.38;4434224;31;683060;-74
2021/06/06 03:36:17;;;;;;;5.68;2.70;;;;;;;20.71;54.12;101492.38;4455920;32;20037;-74
2021/06/06 03:38:43;;;;;;;4.22;2.40;;;;;;;20.29;54.97;101489.72;4451145;32;20108;-75
2021/06/06 03:41:09;;;;;;;3.70;2.62;;;;;;;20.33;54.53;101486.66;4457085;32;20086;-72
2021/06/06 03:43:35;;;;;;;6.53;2.50;;;;;;;20.31;54.88;101483.53;4455541;32;20025;-71
2021/06/06 03:46:02;;;;;;;5.32;2.70;;;;;;;20.37;54.69;101484.44;4456798;32;20513;-73
2021/06/06 03:48:28;;;;;;;6.78;2.65;;;;;;;20.33;54.81;101490.31;4455778;32;20032;-73
2021/06/06 03:50:54;;;;;;;7.20;2.60;;;;;;;20.33;54.82;101484.59;4455413;32;20081;-72
2021/06/06 03:53:22;;;;;;;5.65;2.90;;;;;;;20.33;54.88;101489.53;4458084;32;20067;-72
2021/06/06 03:55:48;;;;;;;3.90;2.37;;;;;;;20.36;54.94;101485.69;4456622;32;20048;-72
2021/06/06 03:58:17;;;;;;;7.22;2.70;;;;;;;20.31;55.07;101492.88;4454723;32;20083;-72
2021/06/06 04:00:47;;;;;;;3.85;2.42;;;;;;;20.41;55.02;101488.69;4453891;32;20111;-72
2021/06/06 04:03:14;;;;;;;5.05;2.22;;;;;;;20.51;54.83;101493.03;4438402;32;20076;-72
2021/06/06 04:05:41;;;;;;;5.70;2.50;;;;;;;20.54;54.82;101491.25;4442036;32;20453;-72
2021/06/06 04:08:09;;;;;;;6.93;2.53;;;;;;;20.62;54.53;101489.62;4438478;32;20069;-73
2021/06/06 04:10:35;;;;;;;5.68;2.75;;;;;;;20.67;54.50;101489.72;4433619;32;20489;-72
2021/06/06 04:13:01;;;;;;;5.15;2.53;;;;;;;20.70;54.46;101488.72;4438862;32;20112;-73
2021/06/06 04:15:26;;;;;;;6.22;2.67;;;;;;;20.65;54.61;101495.13;4441870;32;20165;-72
2021/06/06 04:17:53;;;;;;;4.75;2.78;;;;;;;20.73;54.34;101496.34;4438213;32;20911;-72
2021/06/06 04:20:21;;;;;;;5.55;2.62;;;;;;;20.72;54.17;101493.97;4439745;32;20328;-72
2021/06/06 04:22:48;;;;;;;6.32;2.80;;;;;;;20.83;53.94;101494.97;4435681;32;20083;-73
2021/06/06 04:25:16;;;;;;;9.05;3.20;;;;;;;20.58;54.65;101489.78;4438614;32;20682;-73
2021/06/06 04:27:43;;;;;;;7.32;3.40;;;;;;;20.74;54.35;101502.84;4440711;32;20114;-72
2021/06/06 04:30:11;;;;;;;5.10;2.67;;;;;;;20.76;54.14;101501.06;4438979;32;20021;-72
2021/06/06 04:32:37;;;;;;;5.97;3.22;;;;;;;20.80;53.96;101503.75;4439330;32;20103;-73
2021/06/06 04:35:04;;;;;;;5.07;3.00;;;;;;;20.82;54.04;101499.09;4437523;32;20077;-72
2021/06/06 04:37:30;;;;;;;3.97;2.47;;;;;;;20.99;53.58;101508.81;4437968;32;20069;-73
2021/06/06 04:40:00;;;;;;;6.28;3.30;;;;;;;20.99;53.41;101496.59;4433488;32;20049;-72
2021/06/06 04:42:25;;;;;;;4.50;2.80;;;;;;;20.93;53.48;101499.31;4440930;32;20065;-72
2021/06/06 04:44:51;;;;;;;6.43;3.08;;;;;;;20.86;53.57;101507.50;4429476;32;20089;-72
2021/06/06 04:47:17;;;;;;;7.18;2.92;;;;;;;20.82;53.91;101501.16;4429624;32;20465;-72
2021/06/06 04:49:44;;;;;;;4.45;2.97;;;;;;;20.79;53.91;101511.53;4428041;32;20038;-72
2021/06/06 04:52:12;;;;;;;4.75;3.12;;;;;;;20.82;53.96;101513.41;4430402;32;20081;-72
2021/06/06 04:54:39;;;;;;;6.25;3.20;;;;;;;20.82;54.17;101506.88;4426969;32;20056;-72
2021/06/06 04:57:08;;;;;;;6.25;3.10;;;;;;;20.76;54.50;101509.66;4427755;32;20077;-72
2021/06/06 04:59:36;;;;;;;7.47;3.60;;;;;;;20.84;54.43;101510.06;4428144;32;20169;-72
2021/06/06 05:02:09;;;;;;;4.68;3.20;;;;;;;20.90;54.33;101510.97;4428940;32;20088;-72
2021/06/06 05:04:35;;;;;;;5.15;3.35;;;;;;;20.97;54.05;101516.31;4429455;32;20370;-72
2021/06/06 05:07:01;;;;;;;5.62;3.20;;;;;;;20.96;54.10;101512.66;4430297;32;20385;-72
2021/06/06 05:09:27;;;;;;;4.93;2.97;;;;;;;21.01;54.09;101520.56;4426617;32;20495;-73
2021/06/06 05:11:52;;;;;;;4.00;2.90;;;;;;;20.98;54.18;101523.62;4431100;32;20758;-72
2021/06/06 05:14:18;;;;;;;9.93;3.53;;;;;;;21.06;53.83;101519.91;4431663;32;20038;-73
2021/06/06 05:16:44;;;;;;;5.97;3.05;;;;;;;21.05;53.90;101526.88;4430327;32;20097;-72
2021/06/06 05:19:11;;;;;;;4.82;3.30;;;;;;;20.98;53.97;101527.28;4423408;32;20110;-72
2021/06/06 05:21:37;;;;;;;8.90;3.67;;;;;;;20.94;54.00;101526.69;4429207;32;20029;-72
2021/06/06 05:24:04;;;;;;;6.62;3.90;;;;;;;20.85;54.50;101521.03;4428022;32;20440;-72
2021/06/06 05:26:29;;;;;;;8.10;3.70;;;;;;;20.92;54.39;101532.06;4428680;32;20029;-72
2021/06/06 05:28:55;;;;;;;7.03;4.68;;;;;;;20.99;54.14;101523.12;4426134;32;20033;-72
2021/06/06 05:31:21;;;;;;;7.55;4.62;;;;;;;20.94;54.40;101517.28;4426726;32;20037;-72
2021/06/06 05:33:48;;;;;;;8.10;4.70;;;;;;;21.03;54.08;101531.53;4426937;32;20064;-73
2021/06/06 05:36:14;;;;;;;9.10;5.35;;;;;;;20.88;54.42;101528.63;4429013;32;20105;-73
2021/06/06 05:38:41;;;;;;;8.93;5.57;;;;;;;20.77;54.93;101525.53;4428678;32;20112;-73
2021/06/06 05:41:08;;;;;;;9.38;5.75;;;;;;;20.82;55.11;101522.00;4428852;32;20069;-73
2021/06/06 05:43:33;;;;;;;9.13;5.28;;;;;;;20.90;54.89;101525.25;4429891;32;20130;-73
2021/06/06 05:46:00;;;;;;;10.23;6.50;;;;;;;21.01;54.49;101529.16;4430308;32;20105;-73
2021/06/06 05:48:26;;;;;;;10.10;6.70;;;;;;;21.07;54.53;101532.13;4426914;32;20173;-73
2021/06/06 05:50:55;;;;;;;11.00;6.80;;;;;;;21.13;54.47;101535.88;4425403;32;20470;-73
2021/06/06 05:53:21;;;;;;;11.50;7.22;;;;;;;21.05;54.71;101535.47;4428164;32;20089;-73
2021/06/06 05:55:48;;;;;;;10.55;6.95;;;;;;;21.10;54.65;101534.00;4425379;32;20626;-73
2021/06/06 05:58:15;;;;;;;13.98;7.43;;;;;;;21.02;54.70;101529.97;4425073;32;20443;-73
2021/06/06 06:00:43;;;;;;;11.90;7.07;;;;;;;21.15;54.62;101539.03;4426878;32;20069;-73
2021/06/06 06:03:10;;;;;;;13.30;7.85;;;;;;;21.09;54.76;101544.66;4427780;32;20500;-73
2021/06/06 06:05:37;;;;;;;15.85;7.55;;;;;;;21.19;54.52;101557.59;4428936;32;20056;-74
2021/06/06 06:08:22;;;;;;;10.23;6.75;;;;;;;21.14;54.88;101548.91;4422705;32;20100;-73
2021/06/06 06:10:49;;;;;;;;;;;;;;;21.14;54.81;101546.06;4427362;32;20082;-73
2021/06/06 06:13:17;;;;;;;9.57;6.20;;;;;;;21.24;54.56;101538.94;4430419;32;19993;-73
2021/06/06 06:15:43;;;;;;;10.90;7.03;;;;;;;21.26;54.41;101540.03;4428032;32;20358;-73
2021/06/06 06:18:11;;;;;;;10.52;6.68;;;;;;;21.13;54.74;101538.72;4427915;32;20144;-73
2021/06/06 06:20:37;;;;;;;9.85;5.78;;;;;;;21.06;54.85;101551.38;4428440;32;20350;-73
2021/06/06 06:23:04;;;;;;;8.68;5.65;;;;;;;21.21;54.43;101551.38;4427971;32;20076;-73
2021/06/06 06:25:29;;;;;;;9.40;5.97;;;;;;;21.15;54.61;101553.34;4426118;32;20060;-74
2021/06/06 06:27:55;;;;;;;9.63;5.57;;;;;;;21.11;54.47;101559.25;4424269;32;20084;-73
2021/06/06 06:30:27;;;;;;;8.60;5.30;;;;;;;21.01;54.83;101563.50;4426762;32;20056;-73
2021/06/06 06:32:53;;;;;;;8.27;5.12;;;;;;;20.87;55.61;101558.53;4427120;32;20495;-73
2021/06/06 06:35:20;;;;;;;8.98;4.70;;;;;;;20.98;54.99;101566.53;4425553;32;20045;-73
2021/06/06 06:37:45;;;;;;;8.32;3.53;;;;;;;20.92;55.20;101569.28;4422897;32;20401;-73
2021/06/06 06:40:14;;;;;;;6.80;4.28;;;;;;;20.95;55.32;101571.19;4418868;32;20077;-73
2021/06/06 06:42:40;;;;;;;6.12;3.72;;;;;;;20.63;56.55;101574.12;4427146;32;20071;-73
2021/06/06 06:45:11;;;;;;;7.68;4.30;;;;;;;20.39;58.34;101559.03;4427223;32;20072;-73
2021/06/06 06:47:37;;;;;;;8.05;4.53;;;;;;;20.09;60.72;101565.87;4422801;32;20101;-73
2021/06/06 06:50:06;;;;;;;8.45;4.45;;;;;;;19.75;62.51;101572.84;4423953;32;20439;-74
2021/06/06 06:52:36;;;;;;;6.95;4.32;;;;;;;19.46;63.32;101575.50;4428089;32;20084;-74
2021/06/06 06:55:06;;;;;;;9.88;4.25;;;;;;;19.05;64.42;101576.97;4426250;32;20084;-74
2021/06/06 06:57:32;;;;;;;7.75;3.97;;;;;;;18.92;65.41;101575.56;4437266;32;20437;-73
2021/06/06 06:59:58;;;;;;;11.75;4.25;;;;;;;18.97;65.48;101578.56;4425523;32;20037;-73
2021/06/06 07:02:24;;;;;;;6.25;3.92;;;;;;;18.89;65.81;101582.22;4427068;32;20090;-73
2021/06/06 07:04:51;;;;;;;8.48;3.67;;;;;;;18.89;66.43;101585.06;4424815;32;20057;-73
2021/06/06 07:07:16;;;;;;;7.62;4.22;;;;;;;18.87;66.19;101585.53;4424116;32;20441;-74
2021/06/06 07:09:42;;;;;;;9.20;4.25;;;;;;;18.90;67.11;101584.59;4427221;32;20142;-73
2021/06/06 07:12:08;;;;;;;9.05;4.95;;;;;;;18.98;68.42;101590.75;4426596;32;20038;-73
2021/06/06 07:14:34;;;;;;;6.03;4.43;;;;;;;19.06;66.94;101590.00;4427323;32;20077;-74
2021/06/06 07:16:59;;;;;;;7.00;4.47;;;;;;;18.96;66.98;101587.62;4427554;32;20129;-74
2021/06/06 07:19:26;;;;;;;6.78;4.22;;;;;;;18.79;68.28;101592.84;4427686;32;20494;-74
2021/06/06 07:21:52;;;;;;;8.98;4.85;;;;;;;18.86;68.33;101597.41;4427357;32;20097;-74
2021/06/06 07:24:18;;;;;;;11.32;5.22;;;;;;;18.85;69.25;101593.00;4423738;32;20468;-75
2021/06/06 07:26:47;;;;;;;8.40;4.90;;;;;;;18.96;69.32;101594.09;4426930;32;20465;-74
2021/06/06 07:29:14;;;;;;;13.13;4.50;;;;;;;19.12;69.55;101601.53;4425475;32;20081;-74
2021/06/06 07:31:42;;;;;;;9.30;5.40;;;;;;;19.14;68.58;101607.53;4426263;32;20045;-74
2021/06/06 07:34:09;;;;;;;10.27;5.22;;;;;;;19.01;69.49;101606.94;4427308;32;20091;-74
2021/06/06 07:36:35;;;;;;;9.65;4.60;;;;;;;18.94;70.44;101602.34;4428202;32;20025;-74
2021/06/06 07:39:02;;;;;;;9.02;4.93;;;;;;;18.95;70.97;101603.13;4423713;32;20438;-71
2021/06/06 07:41:28;;;;;;;11.77;6.20;;;;;;;18.99;71.98;101600.94;4424632;32;20121;-71
2021/06/06 07:43:57;;;;;;;10.05;5.68;;;;;;;19.01;72.51;101610.59;4427914;32;20421;-74
2021/06/06 07:46:23;;;;;;;11.45;6.45;;;;;;;19.07;73.71;101600.13;4426946;32;20187;-74
2021/06/06 07:48:49;;;;;;;9.30;5.75;;;;;;;19.13;74.61;101609.63;4426068;32;20108;-75
2021/06/06 07:51:15;;;;;;;9.60;5.50;;;;;;;19.06;74.20;101607.09;4424121;32;20386;-76
2021/06/06 07:53:41;;;;;;;10.13;5.80;;;;;;;18.98;73.35;101602.16;4427948;32;20131;-76
2021/06/06 07:56:07;;;;;;;15.35;5.95;;;;;;;18.92;74.30;101609.78;4427847;32;20081;-75
2021/06/06 07:58:36;;;;;;;8.05;4.55;;;;;;;18.97;75.38;101609.97;4425799;32;20099;-75
2021/06/06 08:01:05;;;;;;;8.88;3.97;;;;;;;18.99;73.97;101609.47;4423463;32;20694;-75
2021/06/06 08:03:31;;;;;;;6.07;3.20;;;;;;;19.01;74.59;101606.94;4425129;32;20085;-74
2021/06/06 08:05:59;;;;;;;6.68;3.50;;;;;;;19.02;75.13;101615.00;4425647;32;20483;-74
2021/06/06 08:08:25;;;;;;;9.45;3.87;;;;;;;19.15;74.74;101606.28;4424787;32;20030;-74
2021/06/06 08:10:54;;;;;;;6.32;3.00;;;;;;;19.24;74.41;101614.84;4422705;32;20477;-74
2021/06/06 08:13:20;;;;;;;10.93;3.80;;;;;;;19.17;73.98;101609.44;4425191;32;20418;-74
2021/06/06 08:15:47;;;;;;;8.05;3.25;;;;;;;19.22;73.77;101617.38;4423222;32;20079;-74
2021/06/06 08:18:17;;;;;;;5.45;3.50;;;;;;;19.31;73.21;101608.84;4427213;32;20089;-74
2021/06/06 08:20:48;;;;;;;5.10;2.62;;;;;;;19.42;73.20;101612.78;4422541;32;20126;-74
2021/06/06 08:23:14;;;;;;;5.10;2.80;;;;;;;19.60;73.62;101609.06;4428865;32;20069;-72
2021/06/06 08:25:40;;;;;;;4.70;2.50;;;;;;;19.63;71.28;101608.91;4430103;32;20490;-72
2021/06/06 08:28:07;;;;;;;3.08;2.30;;;;;;;19.77;71.66;101610.31;4426956;32;20133;-72
2021/06/06 08:30:37;;;;;;;3.65;2.30;;;;;;;19.65;70.73;101614.16;4428545;32;20123;-75
2021/06/06 08:33:04;;;;;;;7.10;2.10;;;;;;;19.71;71.87;101612.22;4419359;32;20230;-73
2021/06/06 08:35:30;;;;;;;7.45;2.80;;;;;;;19.75;71.11;101610.00;4420012;32;20053;-73
2021/06/06 08:37:55;;;;;;;4.57;2.50;;;;;;;19.79;70.34;101613.47;4414576;32;20338;-72
2021/06/06 08:40:32;;;;;;;5.32;2.53;;;;;;;19.88;70.21;101616.28;4414053;32;20468;-72
2021/06/06 08:42:59;;;;;;;3.65;2.30;;;;;;;19.94;70.55;101610.72;4417650;32;20050;-72
2021/06/06 08:45:48;;;;;;;3.87;2.12;;;;;;;19.71;68.50;101610.19;4411936;32;20218;-72
2021/06/06 08:48:16;;;;;;;4.75;2.20;;;;;;;19.53;67.02;101615.12;4420731;32;20069;-72
2021/06/06 08:50:49;;;;;;;5.22;2.70;;;;;;;19.53;68.25;101613.09;4421933;32;20104;-73
2021/06/06 08:53:31;;;;;;;6.65;2.92;;;;;;;19.60;67.53;101618.44;4416943;32;20026;-72
2021/06/06 08:58:43;;;;;;;6.62;2.75;;;;;;;20.25;66.94;101626.31;4433788;31;940860;-74
2021/06/06 09:03:44;;;;;;;5.82;2.78;;;;;;;20.39;68.59;101617.03;4441421;31;771488;-72
2021/06/06 09:06:17;;;;;;;5.20;2.90;;;;;;;20.39;68.59;101617.03;4453562;32;20115;-72
2021/06/06 09:08:43;;;;;;;5.85;2.78;;;;;;;19.79;68.73;101624.91;4442691;32;20053;-72
2021/06/06 09:11:14;;;;;;;6.55;2.87;;;;;;;19.81;67.53;101613.78;4454744;32;20045;-72
2021/06/06 09:13:40;;;;;;;5.68;2.78;;;;;;;19.91;70.18;101621.03;4448434;32;20041;-72
2021/06/06 09:18:47;;;;;;;7.47;3.08;;;;;;;20.92;68.60;101621.94;4446613;31;690897;-73
2021/06/06 09:21:18;;;;;;;7.12;2.87;;;;;;;20.92;68.60;101623.63;4440459;32;20170;-72
2021/06/06 09:23:45;;;;;;;5.65;3.58;;;;;;;20.42;67.49;101618.91;4441787;32;20046;-73
2021/06/06 09:29:02;;;;;;;5.15;2.83;;;;;;;21.07;68.60;101626.56;4425321;31;691071;-72
2021/06/06 09:31:28;;;;;;;3.83;2.75;;;;;;;21.07;68.60;101626.56;4441626;32;20437;-72
2021/06/06 09:36:40;;;;;;;4.83;2.33;;;;;;;21.12;67.04;101632.41;4414271;31;1431861;-73
2021/06/06 09:41:50;;;;;;;6.62;3.70;;;;;;;21.17;67.79;101628.88;4445367;31;670331;-74
2021/06/06 09:46:59;;;;;;;6.37;3.30;;;;;;;21.45;66.51;101632.28;4441807;31;674507;-74
2021/06/06 09:52:27;;;;;;;5.55;2.97;;;;;;;21.28;66.97;101642.59;4456549;31;694898;-72
2021/06/06 09:55:09;;;;;;;4.62;3.10;;;;;;;21.28;66.97;101642.59;4464539;32;20118;-74
2021/06/06 09:57:39;;;;;;;5.22;3.20;;;;;;;20.84;67.51;101633.91;4461732;32;20337;-72
2021/06/06 10:02:48;;;;;;;6.70;3.25;;;;;;;21.26;67.87;101640.22;4416312;31;678377;-73
2021/06/06 10:13:13;;;;;;;5.12;3.83;;;;;;;21.69;66.96;101656.66;4442350;31;667884;-72
2021/06/06 10:16:01;;;;;;;7.05;3.90;;;;;;;21.69;66.96;101656.66;4451970;32;20067;-72
2021/06/06 10:21:22;;;;;;;5.25;3.28;;;;;;;21.58;65.56;101642.16;4413237;31;1364518;-73
2021/06/06 10:23:50;;;;;;;;;;;;;;;21.58;65.83;101638.50;4453240;32;20040;-73
2021/06/06 10:26:29;;;;;;;2.75;2.42;;;;;;;21.67;67.25;101644.91;4452865;32;19987;-73
2021/06/06 10:29:01;;;;;;;6.50;3.37;;;;;;;21.76;63.74;101643.25;4441092;32;20021;-74
2021/06/06 10:34:23;;;;;;;5.87;3.42;;;;;;;22.30;63.89;101642.59;4448140;31;667098;-72
2021/06/06 10:36:50;;;;;;;6.90;3.60;;;;;;;22.30;63.89;101642.59;4447013;32;20089;-71
2021/06/06 10:39:19;;;;;;;5.87;3.53;;;;;;;22.04;64.17;101639.59;4452134;32;20401;-72
2021/06/06 10:42:08;;;;;;;9.10;3.62;;;;;;;22.34;63.94;101643.97;4455576;32;20071;-72
2021/06/06 10:47:28;;;;;;;2.60;2.40;;;;;;;23.75;57.80;101638.19;4432603;32;669982;-72
2021/06/06 10:49:59;;;;;;;4.72;2.70;;;;;;;23.75;57.80;101638.19;4436637;32;20056;-71
2021/06/06 10:55:27;;;;;;;3.05;2.20;;;;;;;24.32;57.56;101639.72;4450679;31;669428;-72
2021/06/06 10:57:54;;;;;;;3.85;2.50;;;;;;;24.32;57.56;101639.72;4451206;32;20067;-72
2021/06/06 11:05:54;;;;;;;3.37;1.67;;;;;;;24.98;53.79;101650.84;4440858;31;677333;-72
2021/06/06 11:13:54;;;;;;;4.87;2.53;;;;;;;25.33;52.66;101642.59;4426762;31;1386381;-72
2021/06/06 11:24:48;;;;;;;4.47;2.90;;;;;;;26.26;47.22;101641.91;4442981;31;668813;-73
2021/06/06 11:27:28;;;;;;;3.67;2.33;;;;;;;26.26;47.22;101641.91;4451866;32;20060;-74
2021/06/06 11:38:25;;;;;;;7.10;2.72;;;;;;;28.06;43.36;101645.81;4435429;31;669321;-72
2021/06/06 11:41:04;;;;;;;5.53;3.00;;;;;;;28.06;43.36;101645.81;4453184;32;20045;-72
2021/06/06 11:43:34;;;;;;;4.62;2.40;;;;;;;28.16;43.02;101644.19;4454338;32;20386;-72
2021/06/06 11:46:15;;;;;;;5.97;2.40;;;;;;;28.35;41.96;101642.91;4454992;32;20068;-72
2021/06/06 11:48:52;;;;;;;4.22;2.85;;;;;;;28.74;40.08;101648.31;4453751;32;20081;-72
2021/06/06 11:51:39;;;;;;;8.02;2.85;;;;;;;29.35;37.89;101644.66;4440849;32;20040;-73
2021/06/06 11:54:17;;;;;;;5.53;2.90;;;;;;;29.81;38.73;101650.06;4455672;32;20159;-72
2021/06/06 11:56:45;;;;;;;4.75;2.80;;;;;;;30.34;40.56;101646.03;4452579;32;20413;-72
2021/06/06 12:02:12;;;;;;;4.50;2.75;;;;;;;31.29;36.70;101648.66;4427316;31;678245;-73
2021/06/06 12:04:39;;;;;;;4.35;2.55;;;;;;;31.29;36.70;101648.66;4440781;32;20099;-73
2021/06/06 12:07:13;;;;;;;5.03;2.47;;;;;;;30.16;36.90;101649.75;4449678;32;20132;-73
2021/06/06 12:09:41;;;;;;;2.27;1.83;;;;;;;29.83;38.24;101635.81;4448128;32;20049;-73
2021/06/06 12:17:37;;;;;;;2.87;2.45;;;;;;;28.44;41.42;101633.13;4449585;31;667375;-72
2021/06/06 12:20:10;;;;;;;3.25;2.92;;;;;;;28.44;41.42;101633.13;4446690;32;20098;-74
2021/06/06 12:22:39;;;;;;;4.90;2.75;;;;;;;27.94;42.74;101629.87;4449611;32;20057;-73
2021/06/06 12:27:51;;;;;;;3.92;2.50;;;;;;;27.31;44.86;101637.94;4439006;31;671825;-72
2021/06/06 12:32:58;;;;;;;4.72;2.70;;;;;;;26.75;45.43;101637.37;4407406;32;665793;-72
2021/06/06 12:35:38;;;;;;;2.62;2.30;;;;;;;26.75;45.43;101637.37;4411425;32;20371;-72
2021/06/06 12:38:04;;;;;;;6.65;3.95;;;;;;;26.07;45.42;101625.66;4422116;32;20113;-72
2021/06/06 12:40:36;;;;;;;6.12;3.60;;;;;;;25.46;47.50;101631.34;4423441;32;20071;-72
2021/06/06 12:43:04;;;;;;;8.07;3.37;;;;;;;25.25;48.21;101618.47;4424605;32;20049;-72
2021/06/06 12:45:33;;;;;;;4.18;3.17;;;;;;;25.32;47.51;101620.88;4418032;32;20620;-73
2021/06/06 12:50:51;;;;;;;5.05;2.87;;;;;;;25.19;46.65;101612.66;4436397;31;682347;-73
2021/06/06 12:56:09;;;;;;;5.30;2.42;;;;;;;25.66;48.39;101618.81;4447784;31;687032;-72
2021/06/06 12:58:36;;;;;;;3.10;2.17;;;;;;;25.66;48.39;101618.81;4435642;32;20084;-73
2021/06/06 13:01:25;;;;;;;4.00;2.28;;;;;;;24.86;48.95;101624.09;4432922;32;20398;-73
2021/06/06 13:03:51;;;;;;;3.20;1.98;;;;;;;24.93;50.23;101629.34;4423189;32;20054;-72
2021/06/06 13:09:31;;;;;;;3.72;1.90;;;;;;;25.73;49.44;101621.16;4441674;31;667984;-73
2021/06/06 13:14:53;;;;;;;7.80;2.20;;;;;;;25.97;47.02;101616.47;4450462;31;669332;-72
2021/06/06 13:28:37;;;;;;;4.07;2.60;;;;;;;25.33;48.75;101610.91;4440623;31;695751;-74
2021/06/06 13:31:24;;;;;;;3.10;2.42;;;;;;;25.33;48.75;101610.91;4440191;32;20444;-76
2021/06/06 13:33:50;;;;;;;4.05;3.00;;;;;;;24.61;50.02;101613.44;4450722;32;20034;-74
2021/06/06 13:36:16;;;;;;;4.20;2.90;;;;;;;24.47;51.11;101605.81;4452508;32;20073;-75
2021/06/06 13:38:41;;;;;;;8.43;3.00;;;;;;;24.02;51.50;101606.78;4447223;32;20424;-75
2021/06/06 13:41:08;;;;;;;5.82;2.72;;;;;;;24.02;52.34;101612.53;4442895;32;20053;-75
2021/06/06 13:43:36;;;;;;;5.05;2.53;;;;;;;24.09;51.27;101608.44;4440106;32;20042;-74